Time;durP1;ratioP1;P1;durP2;ratioP2;P2;SDS_P1;SDS_P2;PMS_P1;PMS_P2;Temp;Humidity;BMP_temperature;BMP_pressure;BME280_temperature;BME280_humidity;BME280_pressure;Samples;Min_cycle;Max_cycle;Signal;HPM_P1;HPM_P2
2021/12/30 00:01:28;;;;;;;4.55;2.10;;;;;;;12.04;87.19;98693.53;2619029;54;20558;-67
2021/12/30 00:03:58;;;;;;;5.10;1.48;;;;;;;12.02;86.93;98707.97;2619009;54;20026;-67
2021/12/30 00:06:29;;;;;;;4.30;1.52;;;;;;;12.01;87.26;98701.88;2618975;54;20031;-67
2021/12/30 00:08:59;;;;;;;4.40;1.50;;;;;;;11.98;86.90;98707.56;2618857;54;20063;-66
2021/12/30 00:11:29;;;;;;;2.55;1.60;;;;;;;11.99;86.65;98705.72;2617962;47;20055;-66
2021/12/30 00:13:58;;;;;;;2.40;1.20;;;;;;;12.01;86.57;98698.41;2618537;47;20053;-67
2021/12/30 00:16:31;;;;;;;6.38;1.50;;;;;;;12.01;86.91;98696.56;2618489;54;20057;-67
2021/12/30 00:19:00;;;;;;;2.55;1.50;;;;;;;12.00;86.82;98705.56;2618578;54;20031;-66
2021/12/30 00:21:30;;;;;;;3.38;1.23;;;;;;;12.02;86.41;98710.63;2618814;54;20085;-67
2021/12/30 00:24:00;;;;;;;4.75;1.90;;;;;;;12.03;86.85;98715.72;2618294;39;20454;-67
2021/12/30 00:26:29;;;;;;;5.07;1.80;;;;;;;12.06;86.32;98723.25;2618269;54;20166;-67
2021/12/30 00:28:59;;;;;;;3.95;1.60;;;;;;;12.08;86.26;98723.06;2618422;54;20078;-67
2021/12/30 00:31:31;;;;;;;3.65;1.60;;;;;;;12.08;86.33;98725.69;2617973;47;20070;-66
2021/12/30 00:34:01;;;;;;;3.08;1.75;;;;;;;12.10;86.90;98721.03;2618441;54;20086;-67
2021/12/30 00:36:31;;;;;;;3.97;1.40;;;;;;;12.13;86.49;98731.22;2618142;54;20018;-66
2021/12/30 00:39:00;;;;;;;5.18;1.70;;;;;;;12.12;86.40;98730.41;2619012;54;20038;-66
2021/12/30 00:41:30;;;;;;;2.47;1.75;;;;;;;12.12;86.95;98730.41;2623547;54;20061;-67
2021/12/30 00:44:00;;;;;;;4.60;1.80;;;;;;;12.14;86.63;98735.50;2624268;54;20031;-67
2021/12/30 00:46:33;;;;;;;4.28;2.22;;;;;;;12.14;86.46;98744.25;2624451;54;20026;-67
2021/12/30 00:49:02;;;;;;;6.57;2.47;;;;;;;12.16;86.90;98744.03;2623542;54;20035;-68
2021/12/30 00:51:32;;;;;;;4.80;2.13;;;;;;;12.17;86.75;98743.06;2623904;54;20083;-68
2021/12/30 00:54:01;;;;;;;4.75;1.85;;;;;;;12.18;86.40;98746.50;2623544;54;20027;-67
2021/12/30 00:56:31;;;;;;;5.30;2.13;;;;;;;12.16;85.86;98733.44;2623398;54;20026;-67
2021/12/30 00:59:00;;;;;;;4.00;1.85;;;;;;;12.18;86.15;98747.31;2622736;47;20034;-68
2021/12/30 01:01:33;;;;;;;5.10;2.17;;;;;;;12.18;85.65;98749.97;2623932;54;20438;-67
2021/12/30 01:04:02;;;;;;;3.67;1.90;;;;;;;12.20;85.12;98752.41;2621653;54;20038;-68
2021/12/30 01:06:32;;;;;;;6.05;1.92;;;;;;;12.15;84.63;98747.72;2619927;51;20030;-66
2021/12/30 01:09:02;;;;;;;3.47;1.60;;;;;;;12.15;84.93;98755.66;2620302;54;20074;-65
2021/12/30 01:11:32;;;;;;;4.80;1.60;;;;;;;12.14;84.68;98764.66;2620210;39;20455;-66
2021/12/30 01:14:05;;;;;;;6.55;1.92;;;;;;;12.11;84.36;98773.00;2619629;54;20598;-67
2021/12/30 01:16:42;;;;;;;7.97;2.35;;;;;;;12.09;84.27;98775.84;2618960;54;20026;-68
2021/12/30 01:19:23;;;;;;;4.07;1.60;;;;;;;12.08;84.11;98781.34;2618382;54;20029;-67
2021/12/30 01:21:56;;;;;;;5.43;1.65;;;;;;;12.05;84.39;98797.66;2618209;54;20027;-67
2021/12/30 01:24:26;;;;;;;5.97;2.03;;;;;;;12.03;84.27;98795.19;2618211;54;20090;-67
2021/12/30 01:26:56;;;;;;;5.75;1.80;;;;;;;12.01;84.26;98815.00;2617928;54;20042;-67
2021/12/30 01:29:29;;;;;;;7.53;2.08;;;;;;;12.01;84.14;98822.94;2618561;39;20534;-66
2021/12/30 01:32:01;;;;;;;6.82;1.90;;;;;;;12.01;84.29;98826.41;2618299;54;20058;-66
2021/12/30 01:34:32;;;;;;;4.95;1.75;;;;;;;12.00;84.28;98829.22;2618125;54;20034;-67
2021/12/30 01:37:04;;;;;;;6.75;2.10;;;;;;;12.00;83.99;98834.53;2617804;54;20550;-66
2021/12/30 01:39:37;;;;;;;6.30;2.15;;;;;;;11.97;84.53;98830.47;2617939;54;20590;-66
2021/12/30 01:42:10;;;;;;;7.13;1.92;;;;;;;11.98;83.96;98826.78;2618101;54;20631;-66
2021/12/30 01:44:40;;;;;;;6.35;2.25;;;;;;;11.96;84.72;98825.34;2618411;54;20034;-67
2021/12/30 01:47:13;;;;;;;9.68;2.55;;;;;;;12.02;84.87;98832.50;2618550;39;20438;-67
2021/12/30 01:49:43;;;;;;;13.45;2.40;;;;;;;12.04;84.68;98841.06;2617938;54;20090;-67
2021/12/30 01:52:12;;;;;;;7.57;2.17;;;;;;;12.06;84.62;98839.84;2618373;54;20045;-67
2021/12/30 01:54:42;;;;;;;5.63;2.05;;;;;;;12.11;84.52;98847.19;2618641;54;20129;-67
2021/12/30 01:57:12;;;;;;;6.93;1.80;;;;;;;12.14;84.91;98849.44;2618779;54;20538;-68
2021/12/30 01:59:42;;;;;;;6.05;2.17;;;;;;;12.17;84.47;98857.00;2619446;54;20030;-66
2021/12/30 02:02:14;;;;;;;4.75;2.33;;;;;;;12.20;85.03;98853.13;2619379;54;20027;-66
2021/12/30 02:04:47;;;;;;;6.30;1.98;;;;;;;12.23;84.67;98856.19;2619339;39;20418;-66
2021/12/30 02:07:18;;;;;;;5.18;1.80;;;;;;;12.26;84.69;98855.78;2618675;54;20031;-66
2021/12/30 02:09:47;;;;;;;7.40;2.45;;;;;;;12.30;84.70;98861.50;2619734;39;20398;-66
2021/12/30 02:12:17;;;;;;;6.38;2.22;;;;;;;12.32;85.24;98859.44;2619406;54;20538;-66
2021/12/30 02:14:46;;;;;;;3.45;2.10;;;;;;;12.36;85.24;98864.13;2619380;54;20045;-66
2021/12/30 02:17:18;;;;;;;5.55;2.25;;;;;;;12.39;85.15;98857.63;2622169;54;20030;-67
2021/12/30 02:19:48;;;;;;;3.95;2.20;;;;;;;12.43;85.36;98863.34;2625450;54;20577;-67
2021/12/30 02:22:20;;;;;;;5.18;2.17;;;;;;;12.45;85.00;98856.00;2619330;47;20030;-66
2021/12/30 02:24:51;;;;;;;4.30;1.88;;;;;;;12.43;85.23;98864.16;2619878;39;20548;-67
2021/12/30 02:27:21;;;;;;;5.63;2.15;;;;;;;12.45;85.45;98856.00;2619529;54;20054;-66
2021/12/30 02:29:51;;;;;;;4.78;2.10;;;;;;;12.47;85.58;98860.09;2619634;54;20031;-67
2021/12/30 02:32:22;;;;;;;5.05;2.33;;;;;;;12.47;85.99;98859.28;2618827;54;20102;-67
2021/12/30 02:34:52;;;;;;;4.97;2.22;;;;;;;12.48;86.19;98863.53;2619634;54;20082;-67
2021/12/30 02:37:24;;;;;;;6.20;2.40;;;;;;;12.47;86.63;98865.38;2619372;54;20023;-67
2021/12/30 02:39:55;;;;;;;5.82;2.83;;;;;;;12.46;86.99;98873.56;2620715;39;20455;-66
2021/12/30 02:42:26;;;;;;;3.92;2.28;;;;;;;12.48;86.75;98882.09;2621747;54;20066;-66
2021/12/30 02:44:56;;;;;;;3.58;2.25;;;;;;;12.48;87.10;98879.47;2622209;54;20030;-67
2021/12/30 02:47:26;;;;;;;6.57;2.60;;;;;;;12.48;87.38;98887.41;2620523;54;20042;-66
2021/12/30 02:49:55;;;;;;;7.13;2.60;;;;;;;12.50;87.10;98888.03;2619801;54;20049;-66
2021/12/30 02:52:27;;;;;;;6.13;2.42;;;;;;;12.54;87.40;98894.56;2618950;54;20070;-67
2021/12/30 02:54:57;;;;;;;5.70;2.90;;;;;;;12.54;87.12;98897.22;2619715;31;20531;-66
2021/12/30 02:57:28;;;;;;;5.38;2.45;;;;;;;12.55;87.50;98896.19;2618830;54;20042;-67
2021/12/30 02:59:57;;;;;;;6.18;2.20;;;;;;;12.55;87.35;98897.00;2618961;54;20078;-67
2021/12/30 03:02:27;;;;;;;3.70;2.45;;;;;;;12.61;87.60;98906.81;2619228;54;20031;-67
2021/12/30 03:04:57;;;;;;;4.05;2.20;;;;;;;12.64;87.57;98905.56;2618622;54;20023;-66
2021/12/30 03:07:29;;;;;;;6.78;2.33;;;;;;;12.65;87.57;98899.25;2618920;54;20064;-67
2021/12/30 03:09:58;;;;;;;3.05;1.95;;;;;;;12.64;87.24;98898.44;2619586;39;20407;-66
2021/12/30 03:12:28;;;;;;;4.57;1.88;;;;;;;12.70;87.82;98902.13;2618478;47;20561;-67
2021/12/30 03:15:00;;;;;;;3.90;2.15;;;;;;;12.75;87.49;98902.31;2618963;54;20026;-67
2021/12/30 03:17:29;;;;;;;3.08;1.70;;;;;;;12.75;87.23;98897.03;2618852;54;20037;-67
2021/12/30 03:19:59;;;;;;;4.95;1.65;;;;;;;12.76;87.58;98903.94;2618874;54;20030;-66
2021/12/30 03:22:31;;;;;;;1.75;1.30;;;;;;;12.74;87.20;98902.53;2618810;54;20061;-66
2021/12/30 03:25:01;;;;;;;4.20;1.63;;;;;;;12.74;87.46;98897.22;2618421;47;20064;-66
2021/12/30 03:27:30;;;;;;;1.70;1.52;;;;;;;12.74;87.27;98894.59;2618903;54;20046;-66
2021/12/30 03:30:00;;;;;;;1.73;1.13;;;;;;;12.72;88.12;98892.13;2619296;39;20122;-67
2021/12/30 03:32:30;;;;;;;1.95;1.10;;;;;;;12.70;87.90;98891.53;2618951;54;20035;-66
2021/12/30 03:34:59;;;;;;;2.92;0.93;;;;;;;12.67;87.62;98893.75;2618817;54;20054;-66
2021/12/30 03:37:32;;;;;;;2.28;0.95;;;;;;;12.64;87.92;98885.16;2618527;54;20075;-66
2021/12/30 03:40:02;;;;;;;2.65;0.90;;;;;;;12.69;88.31;98887.22;2618788;54;20538;-67
2021/12/30 03:42:31;;;;;;;0.90;0.80;;;;;;;12.72;88.35;98896.59;2618929;54;20038;-66
2021/12/30 03:45:02;;;;;;;3.78;1.33;;;;;;;12.73;87.75;98896.38;2618915;54;20038;-67
2021/12/30 03:47:32;;;;;;;3.55;0.70;;;;;;;12.72;87.98;98897.41;2618008;47;20023;-66
2021/12/30 03:50:01;;;;;;;1.55;0.77;;;;;;;12.71;88.03;98893.16;2618979;54;20052;-66
2021/12/30 03:52:34;;;;;;;2.58;0.88;;;;;;;12.74;88.23;98900.69;2618193;47;20042;-66
2021/12/30 03:55:04;;;;;;;1.00;0.75;;;;;;;12.71;88.05;98892.31;2619281;39;20438;-66
2021/12/30 03:57:33;;;;;;;2.55;1.13;;;;;;;12.71;88.72;98901.09;2618454;54;20035;-66
2021/12/30 04:00:03;;;;;;;1.13;1.00;;;;;;;12.75;88.49;98902.31;2618898;54;20034;-66
2021/12/30 04:02:34;;;;;;;1.05;0.77;;;;;;;12.76;88.53;98898.66;2619016;54;20580;-66
2021/12/30 04:05:04;;;;;;;2.03;0.88;;;;;;;12.77;88.36;98905.56;2618617;54;20042;-66
2021/12/30 04:07:37;;;;;;;0.57;0.57;;;;;;;12.77;88.43;98904.75;2618386;54;20030;-66
2021/12/30 04:10:09;;;;;;;0.70;0.70;;;;;;;12.75;88.93;98912.13;2618860;54;20033;-66
2021/12/30 04:12:39;;;;;;;0.82;0.40;;;;;;;12.78;88.95;98909.06;2618721;54;20065;-66
2021/12/30 04:15:10;;;;;;;2.05;0.50;;;;;;;12.79;88.53;98910.69;2618583;54;20042;-66
2021/12/30 04:17:40;;;;;;;0.43;0.40;;;;;;;12.79;88.89;98914.16;2618607;54;20038;-66
2021/12/30 04:20:13;;;;;;;0.57;0.57;;;;;;;12.77;89.01;98916.19;2618680;39;20333;-66
2021/12/30 04:22:45;;;;;;;0.50;0.50;;;;;;;12.83;88.61;98922.53;2618457;54;20031;-66
2021/12/30 04:25:18;;;;;;;0.75;0.60;;;;;;;12.82;88.70;98918.25;2617855;54;20106;-66
2021/12/30 04:27:48;;;;;;;0.40;0.40;;;;;;;12.80;88.84;98918.44;2617677;47;20034;-66
2021/12/30 04:30:18;;;;;;;0.32;0.30;;;;;;;12.85;89.11;98920.47;2618047;47;20062;-66
2021/12/30 04:32:48;;;;;;;1.88;0.43;;;;;;;12.85;88.71;98921.28;2617968;54;20064;-66
2021/12/30 04:35:17;;;;;;;0.40;0.40;;;;;;;12.87;89.04;98921.09;2618630;54;20039;-66
2021/12/30 04:37:50;;;;;;;0.30;0.30;;;;;;;12.85;88.94;98928.44;2618370;54;20654;-66
2021/12/30 04:40:19;;;;;;;0.68;0.43;;;;;;;12.86;89.40;98935.41;2618972;54;20038;-66
2021/12/30 04:42:49;;;;;;;0.45;0.45;;;;;;;12.86;89.02;98932.75;2618567;54;20043;-67
2021/12/30 04:45:19;;;;;;;0.43;0.40;;;;;;;12.87;89.03;98932.53;2618046;47;20038;-67
2021/12/30 04:47:48;;;;;;;1.35;0.50;;;;;;;12.91;89.55;98946.22;2618495;54;20034;-66
2021/12/30 04:50:18;;;;;;;0.52;0.40;;;;;;;12.94;89.20;98952.91;2618410;54;20147;-66
2021/12/30 04:52:50;;;;;;;0.35;0.30;;;;;;;12.95;89.54;98946.63;2618622;54;20085;-66
2021/12/30 04:55:20;;;;;;;0.47;0.43;;;;;;;12.96;89.18;98953.56;2618496;54;20030;-66
2021/12/30 04:57:49;;;;;;;0.50;0.50;;;;;;;12.93;89.50;98960.06;2618535;54;20038;-66
2021/12/30 05:00:19;;;;;;;0.40;0.40;;;;;;;12.92;89.69;98963.75;2618491;54;20039;-66
2021/12/30 05:05:31;;;;;;;3.35;1.25;;;;;;;12.96;89.58;98959.66;2623786;54;20066;-66
2021/12/30 05:08:03;;;;;;;4.53;0.95;;;;;;;12.99;89.75;98967.22;2618680;54;20026;-66
2021/12/30 05:10:33;;;;;;;0.30;0.30;;;;;;;12.99;89.71;98964.56;2618886;54;20114;-66
2021/12/30 05:13:03;;;;;;;0.40;0.40;;;;;;;12.98;89.81;98962.94;2619154;39;20438;-66
2021/12/30 05:15:32;;;;;;;2.17;0.60;;;;;;;12.98;89.83;98959.47;2619708;31;21035;-66
2021/12/30 05:18:02;;;;;;;0.77;0.40;;;;;;;13.00;89.73;98968.84;2619000;54;20037;-66
2021/12/30 05:20:32;;;;;;;1.33;0.43;;;;;;;13.00;90.01;98971.50;2618955;54;20111;-65
2021/12/30 05:23:05;;;;;;;1.42;0.50;;;;;;;13.01;90.05;98964.38;2618590;54;20061;-66
2021/12/30 05:25:34;;;;;;;0.85;0.50;;;;;;;13.03;89.88;98973.75;2618563;54;20038;-66
2021/12/30 05:28:04;;;;;;;1.10;0.60;;;;;;;12.99;89.89;98964.56;2618817;54;20038;-66
2021/12/30 05:30:34;;;;;;;0.30;0.30;;;;;;;12.99;90.00;98966.41;2619285;39;20128;-66
2021/12/30 05:33:04;;;;;;;1.27;0.60;;;;;;;12.99;90.56;98974.38;2619513;54;20034;-65
2021/12/30 05:35:33;;;;;;;1.40;0.40;;;;;;;13.00;90.33;98976.81;2619765;54;20023;-66
2021/12/30 05:38:05;;;;;;;0.45;0.40;;;;;;;12.99;90.24;98985.00;2619514;54;20087;-66
2021/12/30 05:40:36;;;;;;;1.30;0.30;;;;;;;13.01;90.49;98985.59;2619113;54;20027;-66
2021/12/30 05:43:05;;;;;;;0.98;0.40;;;;;;;13.02;90.23;98987.22;2619956;54;20031;-65
2021/12/30 05:45:35;;;;;;;0.40;0.40;;;;;;;13.02;90.41;98992.53;2618815;54;20026;-66
2021/12/30 05:48:05;;;;;;;0.50;0.50;;;;;;;13.06;90.21;98991.09;2618739;54;20065;-66
2021/12/30 05:50:34;;;;;;;0.70;0.50;;;;;;;13.02;90.24;99001.31;2619216;54;20086;-66
2021/12/30 05:53:07;;;;;;;1.63;0.70;;;;;;;13.05;90.40;99000.09;2619723;54;20038;-66
2021/12/30 05:55:37;;;;;;;0.50;0.50;;;;;;;13.05;89.93;99006.22;2620137;54;20041;-65
2021/12/30 05:58:06;;;;;;;0.75;0.43;;;;;;;13.04;90.01;99009.88;2620802;54;20038;-66
2021/12/30 06:00:36;;;;;;;0.57;0.57;;;;;;;13.06;89.98;99012.31;2621060;54;20030;-66
2021/12/30 06:03:06;;;;;;;0.63;0.60;;;;;;;13.04;90.06;99011.72;2623757;54;20117;-66
2021/12/30 06:05:36;;;;;;;0.85;0.63;;;;;;;13.06;90.26;99014.97;2623003;54;20042;-66
2021/12/30 06:08:08;;;;;;;1.05;0.60;;;;;;;13.07;90.40;99028.06;2625387;54;20601;-66
2021/12/30 06:10:39;;;;;;;0.70;0.50;;;;;;;13.09;nan;99018.06;2624761;54;20058;-66
2021/12/30 06:13:09;;;;;;;0.77;0.63;;;;;;;13.10;89.71;99025.00;2624907;54;20577;-66
2021/12/30 06:15:39;;;;;;;0.50;0.50;;;;;;;13.12;90.04;99035.41;2624600;54;20028;-66
2021/12/30 06:18:09;;;;;;;0.45;0.45;;;;;;;13.12;89.74;99043.38;2624712;54;20018;-66
2021/12/30 06:20:38;;;;;;;0.40;0.40;;;;;;;13.13;89.71;99042.34;2624787;54;20031;-66
2021/12/30 06:23:10;;;;;;;1.67;0.70;;;;;;;13.12;89.40;99043.38;2624687;54;20034;-66
2021/12/30 06:25:40;;;;;;;0.75;0.50;;;;;;;13.10;89.83;99045.41;2624357;54;20039;-67
2021/12/30 06:28:10;;;;;;;0.88;0.50;;;;;;;13.10;89.40;99056.03;2621450;39;20473;-66
2021/12/30 06:30:39;;;;;;;0.80;0.80;;;;;;;13.12;89.48;99054.81;2619680;54;20059;-66
2021/12/30 06:33:09;;;;;;;0.75;0.65;;;;;;;13.15;89.46;99053.59;2619211;54;20041;-67
2021/12/30 06:35:38;;;;;;;0.50;0.50;;;;;;;13.14;89.72;99050.13;2618878;47;20526;-67
2021/12/30 06:38:11;;;;;;;0.40;0.40;;;;;;;13.13;89.33;99058.28;2622865;54;20038;-67
2021/12/30 06:40:40;;;;;;;0.80;0.80;;;;;;;13.14;89.71;99062.56;2622590;54;20030;-67
2021/12/30 06:43:10;;;;;;;0.93;0.70;;;;;;;13.14;89.52;99063.41;2622905;54;20166;-67
2021/12/30 06:45:39;;;;;;;0.68;0.68;;;;;;;13.13;89.39;99069.72;2623432;39;20407;-67
2021/12/30 06:48:13;;;;;;;0.73;0.50;;;;;;;13.12;89.28;99062.78;2623560;54;20554;-67
2021/12/30 06:50:51;;;;;;;2.25;1.00;;;;;;;13.12;89.49;99070.72;2620333;31;20467;-66
2021/12/30 06:53:25;;;;;;;0.63;0.63;;;;;;;13.14;89.77;99074.03;2620436;54;20038;-66
2021/12/30 06:55:55;;;;;;;1.67;0.90;;;;;;;13.17;89.30;99075.44;2621969;46;20030;-66
2021/12/30 06:58:25;;;;;;;1.27;0.77;;;;;;;13.19;89.25;99078.72;2619259;54;20035;-66
2021/12/30 07:00:54;;;;;;;0.57;0.57;;;;;;;13.20;89.29;99087.50;2619270;54;20075;-66
2021/12/30 07:03:24;;;;;;;1.23;0.68;;;;;;;13.18;89.20;99094.81;2619101;54;20046;-66
2021/12/30 07:05:54;;;;;;;1.20;0.60;;;;;;;13.19;89.16;99099.97;2618828;54;20039;-66
2021/12/30 07:08:27;;;;;;;0.95;0.60;;;;;;;13.20;88.96;99108.72;2619351;31;20478;-66
2021/12/30 07:10:56;;;;;;;1.60;0.60;;;;;;;13.18;89.19;99116.06;2620979;54;20038;-65
2021/12/30 07:13:26;;;;;;;1.50;0.80;;;;;;;13.20;88.93;99111.38;2622460;54;20034;-66
2021/12/30 07:15:55;;;;;;;1.83;1.33;;;;;;;13.20;89.01;99114.03;2621029;54;20030;-66
2021/12/30 07:18:25;;;;;;;1.25;0.90;;;;;;;13.24;88.86;99117.97;2618148;47;20557;-66
2021/12/30 07:20:55;;;;;;;1.77;0.90;;;;;;;13.22;88.92;99118.09;2618896;54;20042;-67
2021/12/30 07:23:27;;;;;;;1.20;0.73;;;;;;;13.22;88.83;99107.50;2618599;54;20027;-65
2021/12/30 07:25:56;;;;;;;0.75;0.70;;;;;;;13.22;88.78;99115.47;2618157;47;20044;-66
2021/12/30 07:28:26;;;;;;;0.70;0.70;;;;;;;13.23;89.04;99116.34;2618861;54;20082;-66
2021/12/30 07:30:55;;;;;;;0.77;0.77;;;;;;;13.19;88.93;99110.56;2619009;54;20085;-66
2021/12/30 07:33:25;;;;;;;1.48;1.15;;;;;;;13.21;88.97;99110.38;2619004;54;20045;-66
2021/12/30 07:35:55;;;;;;;1.00;0.90;;;;;;;13.22;89.12;99104.84;2618309;54;20158;-66
2021/12/30 07:38:27;;;;;;;1.30;0.73;;;;;;;13.24;88.89;99110.00;2618935;54;20034;-66
2021/12/30 07:40:56;;;;;;;1.23;1.13;;;;;;;13.22;88.55;99112.00;2618410;54;20031;-66
2021/12/30 07:43:26;;;;;;;1.73;1.63;;;;;;;13.25;89.17;99115.09;2618839;54;20085;-66
2021/12/30 07:45:55;;;;;;;1.55;1.40;;;;;;;13.27;88.82;99122.88;2618786;54;20046;-67
2021/12/30 07:48:25;;;;;;;2.70;1.25;;;;;;;13.31;88.41;99118.78;2619166;54;20031;-67
2021/12/30 07:50:55;;;;;;;1.02;0.90;;;;;;;13.32;88.04;99123.88;2623273;54;20027;-67
2021/12/30 07:53:27;;;;;;;2.03;1.83;;;;;;;13.34;88.27;99103.25;2621192;54;20035;-66
2021/12/30 07:55:56;;;;;;;0.80;0.80;;;;;;;13.31;87.92;99114.31;2618473;54;20038;-66
2021/12/30 07:58:26;;;;;;;0.82;0.60;;;;;;;13.35;87.75;99125.34;2618960;54;20085;-67
2021/12/30 08:00:56;;;;;;;1.55;0.70;;;;;;;13.32;87.84;99126.53;2619445;39;20347;-65
2021/12/30 08:03:25;;;;;;;1.15;0.70;;;;;;;13.35;87.76;99135.97;2618741;54;20045;-66
2021/12/30 08:05:55;;;;;;;1.00;0.70;;;;;;;13.32;88.11;99131.03;2618708;54;20035;-66
2021/12/30 08:08:27;;;;;;;1.13;1.02;;;;;;;13.33;87.83;99136.13;2618888;54;20018;-66
2021/12/30 08:10:57;;;;;;;1.27;1.00;;;;;;;13.36;88.32;99142.91;2619012;54;20145;-66
2021/12/30 08:13:27;;;;;;;1.77;1.02;;;;;;;13.37;87.94;99137.38;2618735;54;20034;-66
2021/12/30 08:15:57;;;;;;;0.95;0.70;;;;;;;13.36;88.27;99145.56;2619270;31;20499;-66
2021/12/30 08:18:26;;;;;;;0.80;0.80;;;;;;;13.41;88.18;99142.28;2618994;54;20613;-66
2021/12/30 08:20:56;;;;;;;1.88;0.77;;;;;;;13.40;88.05;99143.31;2619208;54;20034;-66
2021/12/30 08:23:28;;;;;;;0.75;0.70;;;;;;;13.43;87.84;99146.38;2618814;54;20057;-66
2021/12/30 08:25:58;;;;;;;3.30;0.80;;;;;;;13.46;88.02;99138.00;2618661;54;20047;-65
2021/12/30 08:28:27;;;;;;;0.70;0.70;;;;;;;13.48;87.75;99140.47;2618994;54;20581;-66
2021/12/30 08:30:58;;;;;;;1.98;0.80;;;;;;;13.48;87.39;99141.28;2618814;54;20042;-66
2021/12/30 08:33:27;;;;;;;2.80;0.80;;;;;;;13.53;87.11;99140.66;2618990;54;20042;-66
2021/12/30 08:35:57;;;;;;;1.15;0.82;;;;;;;13.54;87.29;99139.63;2618625;54;20045;-66
2021/12/30 08:38:29;;;;;;;1.60;0.68;;;;;;;13.56;87.47;99145.56;2618262;39;20291;-65
2021/12/30 08:40:59;;;;;;;2.47;0.60;;;;;;;13.56;87.29;99157.00;2618862;54;20130;-67
2021/12/30 08:43:29;;;;;;;1.52;0.70;;;;;;;13.55;86.85;99152.72;2618982;54;20089;-66
2021/12/30 08:45:59;;;;;;;1.42;0.75;;;;;;;13.56;87.07;99145.56;2617997;54;20031;-66
2021/12/30 08:48:29;;;;;;;0.60;0.60;;;;;;;13.59;86.87;99146.00;2618772;54;20030;-67
2021/12/30 08:50:58;;;;;;;1.90;1.40;;;;;;;13.61;86.84;99145.78;2618790;54;20070;-67
2021/12/30 14:34:48;;;;;;;3.42;1.60;;;;;;;14.21;77.88;99247.59;2582208;46;20038;-66
2021/12/30 14:37:22;;;;;;;2.92;1.70;;;;;;;14.22;78.12;99245.75;2618461;39;20433;-66
2021/12/30 14:39:54;;;;;;;2.90;1.60;;;;;;;14.24;78.17;99249.00;2619043;54;20042;-67
2021/12/30 14:42:30;;;;;;;2.83;1.40;;;;;;;14.26;77.91;99254.97;2618933;54;20042;-67
2021/12/30 14:45:11;;;;;;;4.03;2.10;;;;;;;14.26;78.42;99270.91;2618582;54;20031;-66
2021/12/30 14:47:46;;;;;;;3.65;2.30;;;;;;;14.21;78.65;99271.53;2618192;54;20035;-73
2021/12/30 14:50:20;;;;;;;8.27;2.10;;;;;;;14.21;78.70;99271.53;2621621;54;20039;-74
2021/12/30 14:52:53;;;;;;;3.33;2.20;;;;;;;14.15;79.31;99274.19;2622166;54;20571;-75
2021/12/30 14:55:29;;;;;;;2.50;1.85;;;;;;;14.11;79.66;99279.06;2621788;54;20085;-72
2021/12/30 14:58:01;;;;;;;5.82;2.63;;;;;;;14.06;79.91;99284.19;2621964;54;20027;-74
2021/12/30 15:00:33;;;;;;;5.43;2.28;;;;;;;14.05;79.69;99282.56;2622303;54;20026;-73
2021/12/30 15:03:03;;;;;;;4.25;1.80;;;;;;;13.97;79.92;99282.75;2624470;54;20031;-74
2021/12/30 15:05:36;;;;;;;3.72;2.13;;;;;;;13.96;80.20;99281.09;2622545;46;20685;-73
2021/12/30 15:08:07;;;;;;;2.95;1.88;;;;;;;13.95;80.38;99282.13;2622388;54;20033;-74
2021/12/30 15:10:39;;;;;;;4.78;3.72;;;;;;;13.94;80.69;99289.28;2624587;54;20037;-73
2021/12/30 15:13:09;;;;;;;4.88;2.60;;;;;;;13.95;81.03;99298.88;2625041;47;20038;-73
2021/12/30 15:15:42;;;;;;;3.50;2.20;;;;;;;13.93;80.49;99305.44;2624394;47;20576;-74
2021/12/30 15:18:12;;;;;;;3.17;1.75;;;;;;;13.80;80.71;99309.72;2625027;54;20038;-75
2021/12/30 15:20:45;;;;;;;5.15;2.28;;;;;;;13.75;81.52;99306.81;2621368;54;20022;-74
2021/12/30 15:23:17;;;;;;;4.18;2.63;;;;;;;13.76;81.63;99316.44;2624293;54;20035;-75
2021/12/30 15:25:48;;;;;;;4.53;1.98;;;;;;;13.65;82.10;99313.56;2624098;54;20042;-72
2021/12/30 15:28:17;;;;;;;5.72;2.67;;;;;;;13.58;82.64;99314.34;2623326;54;20066;-72
2021/12/30 15:30:47;;;;;;;8.05;2.80;;;;;;;13.54;82.85;99315.75;2624482;47;20042;-70
2021/12/30 15:33:17;;;;;;;8.88;2.63;;;;;;;13.52;83.36;99322.31;2625626;39;20538;-71
2021/12/30 15:35:52;;;;;;;6.75;2.83;;;;;;;13.48;83.42;99332.50;2624236;54;20038;-73
2021/12/30 15:38:22;;;;;;;4.93;3.13;;;;;;;13.48;83.23;99327.19;2624835;54;20029;-72
2021/12/30 15:40:52;;;;;;;6.03;3.03;;;;;;;13.49;83.51;99323.50;2624632;54;20049;-72
2021/12/30 15:43:22;;;;;;;4.43;2.47;;;;;;;13.51;83.59;99339.22;2622918;54;20038;-72
2021/12/30 15:45:52;;;;;;;5.90;2.92;;;;;;;13.46;83.70;99352.28;2621513;54;20034;-73
2021/12/30 15:48:27;;;;;;;5.22;2.65;;;;;;;13.43;83.90;99353.53;2622656;31;20605;-73
2021/12/30 15:51:00;;;;;;;4.13;3.53;;;;;;;13.47;83.63;99353.94;2622651;39;20458;-73
2021/12/30 15:53:30;;;;;;;8.07;3.55;;;;;;;13.47;83.74;99357.44;2620509;54;20046;-74
2021/12/30 15:55:59;;;;;;;5.00;3.20;;;;;;;13.48;83.45;99352.94;2621025;54;20041;-74
2021/12/30 15:58:30;;;;;;;5.18;2.53;;;;;;;13.46;83.44;99361.06;2622783;54;20049;-73
2021/12/30 16:01:00;;;;;;;3.92;2.45;;;;;;;13.38;83.72;99364.72;2622916;54;20038;-73
2021/12/30 16:03:30;;;;;;;4.53;2.80;;;;;;;13.37;84.13;99367.56;2623125;46;20064;-73
2021/12/30 16:06:02;;;;;;;5.57;3.50;;;;;;;13.37;83.86;99364.91;2622367;54;20034;-74
2021/12/30 16:08:32;;;;;;;7.22;4.07;;;;;;;13.34;84.09;99367.97;2622666;47;20569;-74
2021/12/30 16:11:02;;;;;;;9.13;4.43;;;;;;;13.37;84.34;99378.19;2623128;54;20034;-74
2021/12/30 16:13:32;;;;;;;4.70;2.33;;;;;;;13.32;84.37;99377.97;2623277;54;20039;-74
2021/12/30 16:16:05;;;;;;;5.68;3.15;;;;;;;13.31;84.68;99376.34;2624332;54;20027;-71
2021/12/30 16:18:35;;;;;;;6.28;3.72;;;;;;;13.34;84.47;99375.94;2623275;54;20081;-74
2021/12/30 16:21:07;;;;;;;5.97;3.42;;;;;;;13.31;84.56;99379.00;2623415;54;20734;-71
2021/12/30 16:23:37;;;;;;;7.70;2.75;;;;;;;13.29;84.97;99378.34;2623269;52;20065;-73
2021/12/30 16:26:07;;;;;;;3.83;2.92;;;;;;;13.26;84.88;99374.25;2621709;54;20046;-74
2021/12/30 16:28:37;;;;;;;5.47;3.25;;;;;;;13.28;85.35;99372.22;2622203;54;20111;-73
2021/12/30 16:31:07;;;;;;;9.35;3.70;;;;;;;13.28;85.28;99374.06;2622652;54;20145;-73
2021/12/30 16:33:38;;;;;;;4.53;2.70;;;;;;;13.31;85.53;99381.66;2621520;47;20609;-74
2021/12/30 16:36:10;;;;;;;4.85;2.47;;;;;;;13.32;85.22;99368.16;2622316;54;20616;-73
2021/12/30 16:38:40;;;;;;;5.20;2.78;;;;;;;13.26;85.23;99382.22;2620356;54;20106;-73
2021/12/30 16:41:09;;;;;;;7.10;2.75;;;;;;;13.18;85.41;99379.69;2620219;54;20073;-73
2021/12/30 16:43:39;;;;;;;5.72;2.85;;;;;;;13.17;85.77;99375.41;2619661;54;20141;-73
2021/12/30 16:46:10;;;;;;;4.93;3.35;;;;;;;13.18;85.29;99381.53;2620758;54;20034;-73
2021/12/30 16:48:40;;;;;;;5.07;2.90;;;;;;;13.17;85.67;99387.84;2620718;54;20025;-73
2021/12/30 16:51:12;;;;;;;4.90;2.13;;;;;;;13.17;85.53;99385.19;2621199;54;20034;-73
2021/12/30 16:53:41;;;;;;;4.47;2.60;;;;;;;13.24;85.33;99378.13;2621716;54;20034;-73
2021/12/30 16:56:11;;;;;;;5.50;2.65;;;;;;;13.29;84.83;99387.13;2620367;47;20030;-73
2021/12/30 16:58:41;;;;;;;5.32;2.20;;;;;;;13.26;84.89;99392.84;2620333;54;20030;-73
2021/12/30 17:01:10;;;;;;;3.72;2.65;;;;;;;13.21;84.36;99392.56;2621370;54;20038;-73
2021/12/30 17:03:42;;;;;;;8.48;2.63;;;;;;;13.18;85.10;99390.31;2621368;54;20044;-73
2021/12/30 17:06:15;;;;;;;4.57;2.10;;;;;;;13.13;84.99;99398.03;2620770;54;20022;-72
2021/12/30 17:08:44;;;;;;;3.75;2.05;;;;;;;13.14;84.74;99397.03;2621323;54;20026;-72
2021/12/30 17:11:14;;;;;;;6.85;2.70;;;;;;;13.14;85.18;99402.31;2621329;54;20042;-73
2021/12/30 17:13:44;;;;;;;4.60;2.50;;;;;;;13.15;84.86;99406.66;2621840;54;20022;-73
2021/12/30 17:16:14;;;;;;;5.18;2.70;;;;;;;13.09;85.02;99404.75;2621837;54;20065;-72
2021/12/30 17:18:45;;;;;;;5.90;2.80;;;;;;;13.07;85.32;99415.56;2620091;47;20033;-72
2021/12/30 17:21:17;;;;;;;6.38;3.95;;;;;;;13.05;85.45;99414.94;2619300;54;20034;-72
2021/12/30 17:23:46;;;;;;;5.43;2.80;;;;;;;13.04;85.79;99417.78;2622404;54;20034;-72
2021/12/30 17:26:17;;;;;;;3.00;2.05;;;;;;;13.02;85.39;99415.34;2622152;54;20046;-73
2021/12/30 17:28:47;;;;;;;6.88;2.45;;;;;;;13.00;85.88;99425.31;2624246;39;20398;-72
2021/12/30 17:31:16;;;;;;;6.43;2.42;;;;;;;13.01;85.74;99424.28;2623913;54;20069;-72
2021/12/30 17:33:46;;;;;;;5.88;2.55;;;;;;;13.04;85.77;99431.88;2623104;54;20050;-72